createdAt,value
2022-09-21T00:01:20.740Z,100.00
2022-09-21T00:03:48.319Z,100.00
2022-09-21T00:06:19.925Z,100.00
2022-09-21T00:08:47.532Z,100.00
2022-09-21T00:11:26.263Z,100.00
2022-09-21T00:13:55.444Z,100.00
2022-09-21T00:16:22.728Z,100.00
2022-09-21T00:18:49.938Z,100.00
2022-09-21T00:21:17.489Z,100.00
2022-09-21T00:23:44.670Z,100.00
2022-09-21T00:26:14.440Z,100.00
2022-09-21T00:28:41.561Z,100.00
2022-09-21T00:31:14.412Z,100.00
2022-09-21T00:33:43.554Z,100.00
2022-09-21T00:36:13.857Z,100.00
2022-09-21T00:38:40.903Z,100.00
2022-09-21T00:41:09.294Z,100.00
2022-09-21T00:44:06.602Z,100.00
2022-09-21T00:46:33.372Z,100.00
2022-09-21T00:49:00.096Z,100.00
2022-09-21T00:51:26.813Z,100.00
2022-09-21T00:54:02.976Z,100.00
2022-09-21T00:56:30.853Z,100.00
2022-09-21T00:58:58.072Z,100.00
2022-09-21T01:01:24.985Z,100.00
2022-09-21T01:03:53.642Z,100.00
2022-09-21T01:06:21.367Z,100.00
2022-09-21T01:08:54.586Z,100.00
2022-09-21T01:12:08.681Z,100.00
2022-09-21T01:15:00.195Z,100.00
2022-09-21T01:17:32.952Z,100.00
2022-09-21T01:20:02.695Z,100.00
2022-09-21T01:22:51.096Z,100.00
2022-09-21T01:25:48.608Z,100.00
2022-09-21T01:28:52.834Z,100.00
2022-09-21T01:31:25.726Z,100.00
2022-09-21T01:33:59.146Z,100.00
2022-09-21T01:36:31.274Z,100.00
2022-09-21T01:39:04.095Z,100.00
2022-09-21T01:41:32.961Z,100.00
2022-09-21T01:44:20.001Z,100.00
2022-09-21T01:46:48.481Z,100.00
2022-09-21T01:49:21.575Z,100.00
2022-09-21T01:51:58.240Z,100.00
2022-09-21T01:54:32.830Z,100.00
2022-09-21T01:57:09.305Z,100.00
2022-09-21T01:59:52.783Z,100.00
2022-09-21T02:02:26.323Z,100.00
2022-09-21T02:04:52.803Z,100.00
2022-09-21T02:07:19.530Z,100.00
2022-09-21T02:09:47.685Z,100.00
2022-09-21T02:12:18.976Z,100.00
2022-09-21T02:14:46.248Z,100.00
2022-09-21T02:17:48.713Z,100.00
2022-09-21T02:20:22.999Z,100.00
2022-09-21T02:23:17.662Z,100.00
2022-09-21T02:25:59.431Z,100.00
2022-09-21T02:28:40.004Z,100.00
2022-09-21T02:31:13.986Z,100.00
2022-09-21T02:34:07.923Z,100.00
2022-09-21T02:36:45.069Z,100.00
2022-09-21T02:39:17.779Z,100.00
2022-09-21T02:41:57.584Z,100.00
2022-09-21T02:44:33.129Z,100.00
2022-09-21T02:47:07.797Z,100.00
2022-09-21T02:49:39.591Z,100.00
2022-09-21T02:52:12.665Z,100.00
2022-09-21T02:54:42.101Z,100.00
2022-09-21T02:57:10.211Z,100.00
2022-09-21T02:59:36.877Z,100.00
2022-09-21T03:02:04.879Z,100.00
2022-09-21T03:04:31.696Z,100.00
2022-09-21T03:06:58.168Z,100.00
2022-09-21T03:09:24.721Z,100.00
2022-09-21T03:11:52.185Z,100.00
2022-09-21T03:14:19.202Z,100.00
2022-09-21T03:16:45.923Z,100.00
2022-09-21T03:19:12.463Z,100.00
2022-09-21T03:21:43.778Z,100.00
2022-09-21T03:24:11.117Z,100.00
2022-09-21T03:26:37.939Z,100.00
2022-09-21T03:29:04.718Z,100.00
2022-09-21T03:31:32.209Z,100.00
2022-09-21T03:33:58.763Z,100.00
2022-09-21T03:36:25.603Z,100.00
2022-09-21T03:38:52.062Z,100.00
2022-09-21T03:41:19.456Z,100.00
2022-09-21T03:43:45.960Z,100.00
2022-09-21T03:46:12.495Z,100.00
2022-09-21T03:48:40.671Z,100.00
2022-09-21T03:51:07.207Z,100.00
2022-09-21T03:53:33.686Z,100.00
2022-09-21T03:56:00.206Z,100.00
2022-09-21T03:58:26.643Z,100.00
2022-09-21T04:00:54.415Z,100.00
2022-09-21T04:03:20.972Z,100.00
2022-09-21T04:05:47.456Z,100.00
2022-09-21T04:08:13.926Z,100.00
2022-09-21T04:10:42.163Z,100.00
2022-09-21T04:13:08.779Z,100.00
2022-09-21T04:15:36.756Z,100.00
2022-09-21T04:18:03.280Z,100.00
2022-09-21T04:20:29.751Z,100.00
2022-09-21T04:22:56.891Z,100.00
2022-09-21T04:25:23.509Z,100.00
2022-09-21T04:27:49.997Z,100.00
2022-09-21T04:30:17.300Z,100.00
2022-09-21T04:32:44.141Z,100.00
2022-09-21T04:35:10.774Z,100.00
2022-09-21T04:37:37.821Z,100.00
2022-09-21T04:40:05.608Z,100.00
2022-09-21T04:42:32.264Z,100.00
2022-09-21T04:44:58.799Z,100.00
2022-09-21T04:47:25.513Z,100.00
2022-09-21T04:49:53.600Z,100.00
2022-09-21T04:52:20.546Z,100.00
2022-09-21T04:54:47.887Z,100.00
2022-09-21T04:57:15.127Z,100.00
2022-09-21T04:59:41.620Z,100.00
2022-09-21T05:02:08.192Z,100.00
2022-09-21T05:04:34.632Z,100.00
2022-09-21T05:07:01.153Z,100.00
2022-09-21T05:09:46.307Z,100.00
2022-09-21T05:12:12.774Z,100.00
2022-09-21T05:14:39.273Z,100.00
2022-09-21T05:17:05.803Z,100.00
2022-09-21T05:19:32.338Z,100.00
2022-09-21T05:21:58.777Z,100.00
2022-09-21T05:24:25.300Z,100.00
2022-09-21T05:26:51.776Z,100.00
2022-09-21T05:29:18.565Z,100.00
2022-09-21T05:31:52.491Z,100.00
2022-09-21T05:34:36.618Z,100.00
2022-09-21T05:37:21.865Z,100.00
2022-09-21T05:39:48.524Z,100.00
2022-09-21T05:42:15.263Z,100.00
2022-09-21T05:44:42.076Z,100.00
2022-09-21T05:47:17.697Z,100.00
2022-09-21T05:50:02.251Z,100.00
2022-09-21T05:52:48.959Z,100.00
2022-09-21T05:55:35.962Z,100.00
2022-09-21T05:58:21.774Z,100.00
2022-09-21T06:00:57.484Z,100.00
2022-09-21T06:03:32.279Z,100.00
2022-09-21T06:05:59.279Z,100.00
2022-09-21T06:08:26.492Z,100.00
2022-09-21T06:10:53.811Z,100.00
2022-09-21T06:13:20.617Z,100.00
2022-09-21T06:15:47.312Z,100.00
2022-09-21T06:18:17.791Z,100.00
2022-09-21T06:20:44.922Z,100.00
2022-09-21T06:23:13.091Z,100.00
2022-09-21T06:25:40.108Z,100.00
2022-09-21T06:28:11.735Z,100.00
2022-09-21T06:30:39.462Z,100.00
2022-09-21T06:33:07.067Z,100.00
2022-09-21T06:35:35.912Z,100.00
2022-09-21T06:38:05.417Z,100.00
2022-09-21T06:40:33.460Z,100.00
2022-09-21T06:43:01.521Z,100.00
2022-09-21T06:45:30.049Z,100.00
2022-09-21T06:47:56.999Z,100.00
2022-09-21T06:50:23.814Z,100.00
2022-09-21T06:52:50.313Z,100.00
2022-09-21T06:55:17.045Z,100.00
2022-09-21T06:57:43.932Z,100.00
2022-09-21T07:00:13.443Z,100.00
2022-09-21T07:02:44.448Z,100.00
2022-09-21T07:05:11.701Z,100.00
2022-09-21T07:07:38.226Z,100.00
2022-09-21T07:10:13.319Z,100.00
2022-09-21T07:12:43.381Z,100.00
2022-09-21T07:15:10.428Z,100.00
2022-09-21T07:17:39.057Z,100.00
2022-09-21T07:20:07.923Z,100.00
2022-09-21T07:22:35.733Z,100.00
2022-09-21T07:25:03.639Z,100.00
2022-09-21T07:27:32.026Z,100.00
2022-09-21T07:29:59.065Z,100.00
2022-09-21T07:32:26.239Z,100.00
2022-09-21T07:34:56.464Z,100.00
2022-09-21T07:37:25.023Z,100.00
2022-09-21T07:39:53.012Z,100.00
2022-09-21T07:42:22.533Z,100.00
2022-09-21T07:44:49.216Z,100.00
2022-09-21T07:47:16.341Z,100.00
2022-09-21T07:49:42.910Z,100.00
2022-09-21T07:52:11.157Z,100.00
2022-09-21T07:54:37.922Z,100.00
2022-09-21T07:57:22.998Z,100.00
2022-09-21T07:59:49.462Z,100.00
2022-09-21T08:02:16.054Z,100.00
2022-09-21T08:04:42.621Z,100.00
2022-09-21T08:07:09.114Z,100.00
2022-09-21T08:09:35.659Z,100.00
2022-09-21T08:12:02.445Z,100.00
2022-09-21T08:14:29.264Z,100.00
2022-09-21T08:16:55.837Z,100.00
2022-09-21T08:19:25.838Z,100.00
2022-09-21T08:21:57.293Z,100.00
2022-09-21T08:24:26.787Z,100.00
2022-09-21T08:26:54.099Z,100.00
2022-09-21T08:29:20.585Z,100.00
2022-09-21T08:31:47.488Z,100.00
2022-09-21T08:34:14.319Z,100.00
2022-09-21T08:36:41.083Z,100.00
2022-09-21T08:39:10.775Z,100.00
2022-09-21T08:41:40.607Z,100.00
2022-09-21T08:44:34.840Z,100.00
2022-09-21T08:47:07.077Z,100.00
2022-09-21T08:49:38.006Z,100.00
2022-09-21T08:52:08.864Z,100.00
2022-09-21T08:54:47.959Z,100.00
2022-09-21T08:57:15.531Z,100.00
2022-09-21T08:59:46.232Z,100.00
2022-09-21T09:02:38.259Z,100.00
2022-09-21T09:05:45.880Z,99.60
2022-09-21T09:08:21.390Z,100.00
2022-09-21T09:11:11.052Z,100.00
2022-09-21T09:14:02.685Z,100.00
2022-09-21T09:16:44.545Z,97.23
2022-09-21T09:19:20.226Z,100.00
2022-09-21T09:21:47.154Z,99.41
2022-09-21T09:24:44.701Z,94.76
2022-09-21T09:27:22.017Z,97.18
2022-09-21T09:30:02.927Z,98.40
2022-09-21T09:32:40.202Z,99.32
2022-09-21T09:35:35.821Z,97.98
2022-09-21T09:38:34.496Z,99.29
2022-09-21T09:41:20.247Z,100.00
2022-09-21T09:44:05.443Z,99.10
2022-09-21T09:46:51.209Z,96.68
2022-09-21T09:49:20.808Z,100.00
2022-09-21T09:51:48.688Z,97.94
2022-09-21T09:54:18.445Z,100.00
2022-09-21T09:56:45.782Z,100.00
2022-09-21T09:59:32.033Z,95.65
2022-09-21T10:02:00.814Z,98.16
2022-09-21T10:04:28.093Z,100.00
2022-09-21T10:06:54.660Z,100.00
2022-09-21T10:09:26.405Z,98.65
2022-09-21T10:11:56.452Z,92.79
2022-09-21T10:14:25.276Z,97.04
2022-09-21T10:16:53.482Z,96.32
2022-09-21T10:19:27.791Z,91.91
2022-09-21T10:22:00.349Z,100.00
2022-09-21T10:24:37.352Z,100.00
2022-09-21T10:27:16.334Z,100.00
2022-09-21T10:29:44.048Z,95.10
2022-09-21T10:32:14.776Z,92.17
2022-09-21T10:34:59.644Z,94.60
2022-09-21T10:37:38.796Z,93.89
2022-09-21T10:40:23.567Z,89.49
2022-09-21T10:42:53.800Z,86.17
2022-09-21T10:45:26.462Z,87.48
2022-09-21T10:48:08.003Z,87.23
2022-09-21T10:50:43.345Z,79.42
2022-09-21T10:53:09.796Z,83.76
2022-09-21T10:56:16.313Z,84.39
2022-09-21T10:59:21.680Z,89.09
2022-09-21T11:01:51.850Z,84.53
2022-09-21T11:04:37.045Z,84.27
2022-09-21T11:07:14.993Z,79.58
2022-09-21T11:09:51.757Z,84.74
2022-09-21T11:12:50.040Z,86.59
2022-09-21T11:15:47.054Z,86.01
2022-09-21T11:18:21.391Z,94.14
2022-09-21T11:20:55.028Z,96.99
2022-09-21T11:23:40.359Z,100.00
2022-09-21T11:26:29.955Z,98.44
2022-09-21T11:29:01.996Z,99.53
2022-09-21T11:32:06.005Z,99.89
2022-09-21T11:34:48.224Z,98.58
2022-09-21T11:37:53.783Z,96.85
2022-09-21T11:40:44.809Z,94.43
2022-09-21T11:43:26.965Z,97.43
2022-09-21T11:46:15.004Z,99.72
2022-09-21T11:49:19.577Z,95.98
2022-09-21T11:52:24.444Z,97.39
2022-09-21T11:55:12.456Z,96.73
2022-09-21T11:58:10.132Z,95.49
2022-09-21T12:00:51.688Z,93.35
2022-09-21T12:03:38.100Z,96.27
2022-09-21T12:06:07.625Z,94.02
2022-09-21T12:08:49.322Z,96.72
2022-09-21T12:11:39.010Z,94.25
2022-09-21T12:14:07.322Z,92.23
2022-09-21T12:16:43.841Z,94.65
2022-09-21T12:19:52.739Z,94.08
2022-09-21T12:22:25.078Z,99.94
2022-09-21T12:24:57.016Z,98.36
2022-09-21T12:27:29.484Z,100.00
2022-09-21T12:30:04.449Z,99.88
2022-09-21T12:32:50.114Z,100.00
2022-09-21T12:35:22.789Z,100.00
2022-09-21T12:38:13.429Z,100.00
2022-09-21T12:40:49.826Z,96.68
2022-09-21T12:43:43.604Z,100.00
2022-09-21T12:46:20.506Z,97.39
2022-09-21T12:48:47.822Z,100.00
2022-09-21T12:51:33.083Z,96.51
2022-09-21T12:54:00.984Z,91.49
2022-09-21T12:56:53.722Z,89.63
2022-09-21T12:59:31.410Z,86.08
2022-09-21T13:02:21.376Z,84.28
2022-09-21T13:05:03.203Z,80.42
2022-09-21T13:07:49.154Z,80.09
2022-09-21T13:10:21.788Z,75.81
2022-09-21T13:12:54.889Z,73.06
2022-09-21T13:15:27.927Z,75.48
2022-09-21T13:18:05.969Z,73.38
2022-09-21T13:20:41.108Z,71.39
2022-09-21T13:23:16.915Z,78.95
2022-09-21T13:25:49.858Z,76.22
2022-09-21T13:28:16.768Z,81.73
2022-09-21T13:30:49.094Z,73.27
2022-09-21T13:33:31.356Z,74.54
2022-09-21T13:36:04.071Z,69.12
2022-09-21T13:38:40.206Z,67.81
2022-09-21T13:41:18.652Z,76.04
2022-09-21T13:43:59.799Z,73.98
2022-09-21T13:46:35.232Z,79.57
2022-09-21T13:49:18.149Z,68.57
2022-09-21T13:52:07.382Z,67.61
2022-09-21T13:54:50.579Z,75.99
2022-09-21T13:57:24.279Z,69.15
2022-09-21T14:00:08.061Z,68.40
2022-09-21T14:02:38.616Z,68.57
2022-09-21T14:05:35.689Z,68.00
2022-09-21T14:08:05.289Z,69.88
2022-09-21T14:10:36.247Z,73.83
2022-09-21T14:13:17.155Z,67.31
2022-09-21T14:15:43.633Z,66.96
2022-09-21T14:18:19.045Z,70.89
2022-09-21T14:21:08.835Z,71.71
2022-09-21T14:23:37.396Z,73.28
2022-09-21T14:26:33.247Z,73.61
2022-09-21T14:29:10.818Z,73.82
2022-09-21T14:31:41.237Z,73.30
2022-09-21T14:34:16.037Z,75.32
2022-09-21T14:36:47.038Z,77.02
2022-09-21T14:39:19.941Z,77.19
2022-09-21T14:41:50.355Z,77.17
2022-09-21T14:44:21.010Z,77.30
2022-09-21T14:47:11.717Z,78.46
2022-09-21T14:49:51.268Z,79.16
2022-09-21T14:53:08.112Z,80.84
2022-09-21T14:56:13.343Z,78.45
2022-09-21T14:59:24.920Z,76.27
2022-09-21T15:01:59.323Z,77.28
2022-09-21T15:04:48.489Z,81.41
2022-09-21T15:07:45.821Z,83.21
2022-09-21T15:10:39.903Z,81.46
2022-09-21T15:13:38.719Z,82.82
2022-09-21T15:16:17.923Z,79.03
2022-09-21T15:18:49.707Z,80.38
2022-09-21T15:21:29.291Z,82.88
2022-09-21T15:23:56.711Z,83.65
2022-09-21T15:26:29.836Z,85.58
2022-09-21T15:29:14.874Z,82.93
2022-09-21T15:31:42.192Z,81.61
2022-09-21T15:34:11.118Z,80.68
2022-09-21T15:36:40.521Z,84.46
2022-09-21T15:39:07.594Z,87.03
2022-09-21T15:41:49.416Z,88.71
2022-09-21T15:44:22.500Z,91.53
2022-09-21T15:47:00.896Z,87.73
2022-09-21T15:49:29.664Z,87.76
2022-09-21T15:52:02.620Z,91.72
2022-09-21T15:54:53.123Z,83.27
2022-09-21T15:57:24.066Z,91.32
2022-09-21T15:59:51.194Z,90.36
2022-09-21T16:02:23.444Z,93.01
2022-09-21T16:04:51.864Z,94.19
2022-09-21T16:07:37.717Z,93.94
2022-09-21T16:10:30.250Z,93.99
2022-09-21T16:13:43.450Z,94.79
2022-09-21T16:16:14.882Z,93.48
2022-09-21T16:18:46.791Z,90.46
2022-09-21T16:21:27.713Z,93.92
2022-09-21T16:23:58.503Z,92.41
2022-09-21T16:26:35.594Z,93.39
2022-09-21T16:29:08.409Z,88.32
2022-09-21T16:31:36.216Z,91.43
2022-09-21T16:34:18.718Z,88.32
2022-09-21T16:36:47.551Z,92.20
2022-09-21T16:39:16.492Z,93.69
2022-09-21T16:41:50.365Z,96.59
2022-09-21T16:44:21.014Z,97.50
2022-09-21T16:46:56.841Z,97.74
2022-09-21T16:49:30.240Z,98.41
2022-09-21T16:51:58.363Z,98.21
2022-09-21T16:54:27.206Z,97.14
2022-09-21T16:56:57.879Z,99.64
2022-09-21T16:59:24.887Z,100.00
2022-09-21T17:01:56.381Z,100.00
2022-09-21T17:04:26.357Z,100.00
2022-09-21T17:06:54.113Z,100.00
2022-09-21T17:09:20.907Z,100.00
2022-09-21T17:11:48.403Z,100.00
2022-09-21T17:14:18.873Z,100.00
2022-09-21T17:16:49.075Z,100.00
2022-09-21T17:19:16.043Z,100.00
2022-09-21T17:21:42.810Z,100.00
2022-09-21T17:24:09.313Z,100.00
2022-09-21T17:26:35.923Z,100.00
2022-09-21T17:29:04.228Z,100.00
2022-09-21T17:31:32.696Z,100.00
2022-09-21T17:34:09.216Z,100.00
2022-09-21T17:36:36.788Z,100.00
2022-09-21T17:39:03.843Z,100.00
2022-09-21T17:41:59.096Z,100.00
2022-09-21T17:45:04.920Z,100.00
2022-09-21T17:47:34.022Z,100.00
2022-09-21T17:50:12.704Z,100.00
2022-09-21T17:52:59.415Z,100.00
2022-09-21T17:55:26.399Z,100.00
2022-09-21T17:58:34.440Z,100.00
2022-09-21T18:01:04.245Z,100.00
2022-09-21T18:03:35.953Z,100.00
2022-09-21T18:06:02.772Z,100.00
2022-09-21T18:08:31.355Z,100.00
2022-09-21T18:11:23.211Z,100.00
2022-09-21T18:14:07.157Z,100.00
2022-09-21T18:16:45.705Z,100.00
2022-09-21T18:19:33.751Z,100.00
2022-09-21T18:22:33.536Z,100.00
2022-09-21T18:25:01.119Z,100.00
2022-09-21T18:27:27.840Z,100.00
2022-09-21T18:29:54.520Z,100.00
2022-09-21T18:32:42.913Z,100.00
2022-09-21T18:35:38.702Z,100.00
2022-09-21T18:38:05.114Z,100.00
2022-09-21T18:40:45.263Z,100.00
2022-09-21T18:43:45.895Z,100.00
2022-09-21T18:46:28.803Z,100.00
2022-09-21T18:49:23.696Z,100.00
2022-09-21T18:51:59.455Z,100.00
2022-09-21T18:54:29.943Z,100.00
2022-09-21T18:56:56.789Z,100.00
2022-09-21T18:59:23.877Z,100.00
2022-09-21T19:01:52.426Z,100.00
2022-09-21T19:04:19.422Z,100.00
2022-09-21T19:07:03.027Z,100.00
2022-09-21T19:09:54.549Z,100.00
2022-09-21T19:12:47.252Z,100.00
2022-09-21T19:15:59.370Z,100.00
2022-09-21T19:18:29.003Z,100.00
2022-09-21T19:21:22.805Z,100.00
2022-09-21T19:24:13.658Z,100.00
2022-09-21T19:26:55.916Z,100.00
2022-09-21T19:29:47.089Z,100.00
2022-09-21T19:32:17.516Z,100.00
2022-09-21T19:34:44.377Z,100.00
2022-09-21T19:37:11.281Z,100.00
2022-09-21T19:39:38.085Z,100.00
2022-09-21T19:42:37.210Z,100.00
2022-09-21T19:45:33.118Z,100.00
2022-09-21T19:48:08.162Z,100.00
2022-09-21T19:50:54.792Z,100.00
2022-09-21T19:53:41.073Z,100.00
2022-09-21T19:56:34.852Z,100.00
2022-09-21T19:59:20.441Z,100.00
2022-09-21T20:02:01.282Z,100.00
2022-09-21T20:04:48.807Z,100.00
2022-09-21T20:07:25.655Z,100.00
2022-09-21T20:10:09.729Z,100.00
2022-09-21T20:13:16.364Z,100.00
2022-09-21T20:15:48.235Z,100.00
2022-09-21T20:18:45.561Z,100.00
2022-09-21T20:21:15.243Z,100.00
2022-09-21T20:23:42.448Z,100.00
2022-09-21T20:26:26.888Z,100.00
2022-09-21T20:28:54.785Z,100.00
2022-09-21T20:31:23.382Z,100.00
2022-09-21T20:33:50.007Z,100.00
2022-09-21T20:36:16.630Z,100.00
2022-09-21T20:38:43.980Z,100.00
2022-09-21T20:41:15.862Z,100.00
2022-09-21T20:43:43.582Z,100.00
2022-09-21T20:46:11.033Z,100.00
2022-09-21T20:48:38.399Z,100.00
2022-09-21T20:51:06.159Z,100.00
2022-09-21T20:53:35.779Z,100.00
2022-09-21T20:56:03.502Z,100.00
2022-09-21T20:58:30.984Z,100.00
2022-09-21T21:01:04.082Z,100.00
2022-09-21T21:03:30.632Z,100.00
2022-09-21T21:06:08.497Z,100.00
2022-09-21T21:08:35.022Z,100.00
2022-09-21T21:11:01.484Z,100.00
2022-09-21T21:13:31.610Z,100.00
2022-09-21T21:16:00.187Z,100.00
2022-09-21T21:18:27.497Z,100.00
2022-09-21T21:20:54.014Z,100.00
2022-09-21T21:23:20.508Z,100.00
2022-09-21T21:25:48.011Z,100.00
2022-09-21T21:28:14.631Z,100.00
2022-09-21T21:30:41.087Z,100.00
2022-09-21T21:33:07.628Z,100.00
2022-09-21T21:35:34.096Z,100.00
2022-09-21T21:38:00.676Z,100.00
2022-09-21T21:40:27.395Z,100.00
2022-09-21T21:42:56.271Z,100.00
2022-09-21T21:45:22.823Z,100.00
2022-09-21T21:47:49.684Z,100.00
2022-09-21T21:50:16.657Z,100.00
2022-09-21T21:52:45.176Z,100.00
2022-09-21T21:55:11.949Z,100.00
2022-09-21T21:57:38.473Z,100.00
2022-09-21T22:00:06.586Z,100.00
2022-09-21T22:02:33.138Z,100.00
2022-09-21T22:04:59.820Z,100.00
2022-09-21T22:07:26.306Z,100.00
2022-09-21T22:09:52.861Z,100.00
2022-09-21T22:12:19.613Z,100.00
2022-09-21T22:14:46.548Z,100.00
2022-09-21T22:17:14.138Z,100.00
2022-09-21T22:19:40.631Z,100.00
2022-09-21T22:22:07.138Z,100.00
2022-09-21T22:24:33.592Z,100.00
2022-09-21T22:27:00.065Z,100.00
2022-09-21T22:29:26.538Z,100.00
2022-09-21T22:31:55.145Z,100.00
2022-09-21T22:34:21.808Z,100.00
2022-09-21T22:36:48.331Z,100.00
2022-09-21T22:39:14.826Z,100.00
2022-09-21T22:41:42.813Z,100.00
2022-09-21T22:44:10.625Z,100.00
2022-09-21T22:46:38.176Z,100.00
2022-09-21T22:49:05.304Z,100.00
2022-09-21T22:51:31.885Z,100.00
2022-09-21T22:53:58.559Z,100.00
2022-09-21T22:56:27.550Z,100.00
2022-09-21T22:58:56.081Z,100.00
2022-09-21T23:01:25.630Z,100.00
2022-09-21T23:04:05.136Z,100.00
2022-09-21T23:06:33.947Z,100.00
2022-09-21T23:09:03.051Z,100.00
2022-09-21T23:11:32.819Z,100.00
2022-09-21T23:14:00.011Z,100.00
2022-09-21T23:16:28.429Z,100.00
2022-09-21T23:18:55.613Z,100.00
2022-09-21T23:21:24.670Z,100.00
2022-09-21T23:23:55.738Z,100.00
2022-09-21T23:26:24.333Z,100.00
2022-09-21T23:28:53.392Z,100.00
2022-09-21T23:31:20.538Z,100.00
2022-09-21T23:33:50.279Z,100.00
2022-09-21T23:36:20.028Z,100.00
2022-09-21T23:38:47.745Z,100.00
2022-09-21T23:41:17.228Z,100.00
2022-09-21T23:43:44.778Z,100.00
2022-09-21T23:46:14.549Z,100.00
2022-09-21T23:48:41.935Z,100.00
2022-09-21T23:51:09.001Z,100.00
2022-09-21T23:53:36.669Z,100.00
2022-09-21T23:56:04.334Z,100.00
2022-09-21T23:58:30.979Z,100.00
